sensor_id;sensor_type;location;lat;lon;timestamp;P1;durP1;ratioP1;P2;durP2;ratioP2
59872;SDS011;50750;51.636;4.948;2022-11-20T00:01:12;6.60;;;5.00;;
59872;SDS011;50750;51.636;4.948;2022-11-20T00:03:43;6.90;;;5.10;;
59872;SDS011;50750;51.636;4.948;2022-11-20T00:06:11;6.50;;;4.90;;
59872;SDS011;50750;51.636;4.948;2022-11-20T00:08:40;6.40;;;4.80;;
59872;SDS011;50750;51.636;4.948;2022-11-20T00:11:07;6.30;;;4.90;;
59872;SDS011;50750;51.636;4.948;2022-11-20T00:13:39;6.50;;;5.00;;
59872;SDS011;50750;51.636;4.948;2022-11-20T00:16:06;6.90;;;4.90;;
59872;SDS011;50750;51.636;4.948;2022-11-20T00:18:33;6.20;;;4.70;;
59872;SDS011;50750;51.636;4.948;2022-11-20T00:21:01;6.20;;;4.70;;
59872;SDS011;50750;51.636;4.948;2022-11-20T00:23:32;6.80;;;5.00;;
59872;SDS011;50750;51.636;4.948;2022-11-20T00:26:03;7.00;;;5.10;;
59872;SDS011;50750;51.636;4.948;2022-11-20T00:28:34;6.70;;;4.80;;
59872;SDS011;50750;51.636;4.948;2022-11-20T00:33:29;6.70;;;4.80;;
59872;SDS011;50750;51.636;4.948;2022-11-20T00:36:02;7.00;;;5.30;;
59872;SDS011;50750;51.636;4.948;2022-11-20T00:38:31;6.90;;;5.00;;
59872;SDS011;50750;51.636;4.948;2022-11-20T00:40:59;6.30;;;4.70;;
59872;SDS011;50750;51.636;4.948;2022-11-20T00:43:27;6.40;;;5.00;;
59872;SDS011;50750;51.636;4.948;2022-11-20T00:46:13;6.10;;;4.50;;
59872;SDS011;50750;51.636;4.948;2022-11-20T00:48:41;6.00;;;4.50;;
59872;SDS011;50750;51.636;4.948;2022-11-20T00:51:09;7.20;;;4.70;;
59872;SDS011;50750;51.636;4.948;2022-11-20T00:53:37;6.10;;;4.50;;
59872;SDS011;50750;51.636;4.948;2022-11-20T00:56:05;7.10;;;4.30;;
59872;SDS011;50750;51.636;4.948;2022-11-20T00:58:34;6.70;;;4.80;;
59872;SDS011;50750;51.636;4.948;2022-11-20T01:01:13;6.20;;;4.40;;
59872;SDS011;50750;51.636;4.948;2022-11-20T01:03:46;6.60;;;5.00;;
59872;SDS011;50750;51.636;4.948;2022-11-20T01:06:17;7.50;;;4.60;;
59872;SDS011;50750;51.636;4.948;2022-11-20T01:08:47;7.00;;;4.60;;
59872;SDS011;50750;51.636;4.948;2022-11-20T01:11:15;5.90;;;4.30;;
59872;SDS011;50750;51.636;4.948;2022-11-20T01:13:47;6.80;;;5.00;;
59872;SDS011;50750;51.636;4.948;2022-11-20T01:16:17;6.10;;;4.40;;
59872;SDS011;50750;51.636;4.948;2022-11-20T01:21:20;6.70;;;4.40;;
59872;SDS011;50750;51.636;4.948;2022-11-20T01:23:58;6.60;;;4.70;;
59872;SDS011;50750;51.636;4.948;2022-11-20T01:26:26;6.80;;;4.20;;
59872;SDS011;50750;51.636;4.948;2022-11-20T01:28:55;6.10;;;4.60;;
59872;SDS011;50750;51.636;4.948;2022-11-20T01:31:27;6.20;;;4.70;;
59872;SDS011;50750;51.636;4.948;2022-11-20T01:33:56;5.70;;;4.20;;
59872;SDS011;50750;51.636;4.948;2022-11-20T01:36:26;7.10;;;5.00;;
59872;SDS011;50750;51.636;4.948;2022-11-20T01:38:56;6.10;;;4.60;;
59872;SDS011;50750;51.636;4.948;2022-11-20T01:41:24;6.30;;;4.70;;
59872;SDS011;50750;51.636;4.948;2022-11-20T01:44:12;7.10;;;4.70;;
59872;SDS011;50750;51.636;4.948;2022-11-20T01:49:23;5.90;;;4.10;;
59872;SDS011;50750;51.636;4.948;2022-11-20T01:52:24;6.40;;;4.40;;
59872;SDS011;50750;51.636;4.948;2022-11-20T01:54:54;6.80;;;4.50;;
59872;SDS011;50750;51.636;4.948;2022-11-20T01:57:27;7.00;;;4.30;;
59872;SDS011;50750;51.636;4.948;2022-11-20T01:59:57;6.50;;;4.90;;
59872;SDS011;50750;51.636;4.948;2022-11-20T02:02:28;6.20;;;4.60;;
59872;SDS011;50750;51.636;4.948;2022-11-20T02:04:56;5.80;;;4.60;;
59872;SDS011;50750;51.636;4.948;2022-11-20T02:07:30;6.50;;;4.80;;
59872;SDS011;50750;51.636;4.948;2022-11-20T02:09:57;5.90;;;4.40;;
59872;SDS011;50750;51.636;4.948;2022-11-20T02:12:24;5.50;;;4.30;;
59872;SDS011;50750;51.636;4.948;2022-11-20T02:15:09;6.20;;;4.50;;
59872;SDS011;50750;51.636;4.948;2022-11-20T02:17:35;6.30;;;4.40;;
59872;SDS011;50750;51.636;4.948;2022-11-20T02:20:02;5.60;;;4.30;;
59872;SDS011;50750;51.636;4.948;2022-11-20T02:22:35;6.50;;;4.70;;
59872;SDS011;50750;51.636;4.948;2022-11-20T02:25:13;6.10;;;4.50;;
59872;SDS011;50750;51.636;4.948;2022-11-20T02:27:41;5.80;;;4.20;;
59872;SDS011;50750;51.636;4.948;2022-11-20T02:30:08;5.60;;;4.30;;
59872;SDS011;50750;51.636;4.948;2022-11-20T02:32:37;7.30;;;4.60;;
59872;SDS011;50750;51.636;4.948;2022-11-20T02:37:47;6.20;;;4.40;;
59872;SDS011;50750;51.636;4.948;2022-11-20T02:40:16;6.80;;;4.70;;
59872;SDS011;50750;51.636;4.948;2022-11-20T02:42:43;5.90;;;4.20;;
59872;SDS011;50750;51.636;4.948;2022-11-20T02:45:10;6.20;;;4.70;;
59872;SDS011;50750;51.636;4.948;2022-11-20T02:47:37;5.20;;;3.80;;
59872;SDS011;50750;51.636;4.948;2022-11-20T02:50:04;5.80;;;4.00;;
59872;SDS011;50750;51.636;4.948;2022-11-20T02:52:31;6.20;;;4.40;;
59872;SDS011;50750;51.636;4.948;2022-11-20T02:54:58;6.20;;;4.50;;
59872;SDS011;50750;51.636;4.948;2022-11-20T02:57:24;6.20;;;4.50;;
59872;SDS011;50750;51.636;4.948;2022-11-20T02:59:51;7.10;;;4.80;;
59872;SDS011;50750;51.636;4.948;2022-11-20T03:02:18;6.80;;;4.50;;
59872;SDS011;50750;51.636;4.948;2022-11-20T03:04:45;6.30;;;4.50;;
59872;SDS011;50750;51.636;4.948;2022-11-20T03:07:11;6.60;;;4.40;;
59872;SDS011;50750;51.636;4.948;2022-11-20T03:09:38;5.60;;;4.40;;
59872;SDS011;50750;51.636;4.948;2022-11-20T03:12:05;5.70;;;4.10;;
59872;SDS011;50750;51.636;4.948;2022-11-20T03:14:32;7.10;;;4.10;;
59872;SDS011;50750;51.636;4.948;2022-11-20T03:16:58;6.20;;;4.60;;
59872;SDS011;50750;51.636;4.948;2022-11-20T03:19:25;6.40;;;4.60;;
59872;SDS011;50750;51.636;4.948;2022-11-20T03:21:51;5.50;;;4.10;;
59872;SDS011;50750;51.636;4.948;2022-11-20T03:24:18;6.30;;;4.60;;
59872;SDS011;50750;51.636;4.948;2022-11-20T03:26:44;6.80;;;4.60;;
59872;SDS011;50750;51.636;4.948;2022-11-20T03:29:11;6.20;;;4.20;;
59872;SDS011;50750;51.636;4.948;2022-11-20T03:31:38;5.60;;;4.20;;
59872;SDS011;50750;51.636;4.948;2022-11-20T03:34:07;6.40;;;4.50;;
59872;SDS011;50750;51.636;4.948;2022-11-20T03:36:37;5.80;;;4.30;;
59872;SDS011;50750;51.636;4.948;2022-11-20T03:39:05;6.60;;;4.60;;
59872;SDS011;50750;51.636;4.948;2022-11-20T03:41:35;5.80;;;4.40;;
59872;SDS011;50750;51.636;4.948;2022-11-20T03:44:04;6.20;;;4.60;;
59872;SDS011;50750;51.636;4.948;2022-11-20T03:48:59;5.30;;;3.70;;
59872;SDS011;50750;51.636;4.948;2022-11-20T03:51:30;6.30;;;4.40;;
59872;SDS011;50750;51.636;4.948;2022-11-20T03:53:59;5.40;;;3.90;;
59872;SDS011;50750;51.636;4.948;2022-11-20T03:56:30;6.60;;;4.70;;
59872;SDS011;50750;51.636;4.948;2022-11-20T03:58:58;5.30;;;4.10;;
59872;SDS011;50750;51.636;4.948;2022-11-20T04:01:26;6.70;;;4.60;;
59872;SDS011;50750;51.636;4.948;2022-11-20T04:03:55;5.50;;;4.20;;
59872;SDS011;50750;51.636;4.948;2022-11-20T04:06:24;6.60;;;4.20;;
59872;SDS011;50750;51.636;4.948;2022-11-20T04:08:55;6.00;;;4.30;;
59872;SDS011;50750;51.636;4.948;2022-11-20T04:13:54;6.90;;;4.50;;
59872;SDS011;50750;51.636;4.948;2022-11-20T04:16:24;5.60;;;4.50;;
59872;SDS011;50750;51.636;4.948;2022-11-20T04:18:55;6.40;;;4.60;;
59872;SDS011;50750;51.636;4.948;2022-11-20T04:21:23;6.10;;;4.30;;
59872;SDS011;50750;51.636;4.948;2022-11-20T04:23:50;5.80;;;4.30;;
59872;SDS011;50750;51.636;4.948;2022-11-20T04:26:19;6.30;;;4.90;;
59872;SDS011;50750;51.636;4.948;2022-11-20T04:28:47;6.00;;;4.50;;
59872;SDS011;50750;51.636;4.948;2022-11-20T04:31:18;5.30;;;4.20;;
59872;SDS011;50750;51.636;4.948;2022-11-20T04:33:46;5.20;;;4.10;;
59872;SDS011;50750;51.636;4.948;2022-11-20T04:38:50;6.70;;;4.50;;
59872;SDS011;50750;51.636;4.948;2022-11-20T04:41:21;5.30;;;4.10;;
59872;SDS011;50750;51.636;4.948;2022-11-20T04:43:50;6.80;;;4.50;;
59872;SDS011;50750;51.636;4.948;2022-11-20T04:46:18;5.60;;;4.30;;
59872;SDS011;50750;51.636;4.948;2022-11-20T04:48:46;5.70;;;4.30;;
59872;SDS011;50750;51.636;4.948;2022-11-20T04:51:14;6.20;;;4.20;;
59872;SDS011;50750;51.636;4.948;2022-11-20T04:53:41;5.60;;;3.90;;
59872;SDS011;50750;51.636;4.948;2022-11-20T04:56:08;6.90;;;4.70;;
59872;SDS011;50750;51.636;4.948;2022-11-20T04:58:37;7.00;;;4.70;;
59872;SDS011;50750;51.636;4.948;2022-11-20T05:01:05;5.90;;;4.60;;
59872;SDS011;50750;51.636;4.948;2022-11-20T05:03:33;5.90;;;4.50;;
59872;SDS011;50750;51.636;4.948;2022-11-20T05:06:00;5.60;;;4.20;;
59872;SDS011;50750;51.636;4.948;2022-11-20T05:08:29;6.30;;;4.40;;
59872;SDS011;50750;51.636;4.948;2022-11-20T05:11:03;6.70;;;4.60;;
59872;SDS011;50750;51.636;4.948;2022-11-20T05:13:35;5.90;;;4.60;;
59872;SDS011;50750;51.636;4.948;2022-11-20T05:16:05;5.10;;;4.10;;
59872;SDS011;50750;51.636;4.948;2022-11-20T05:18:34;6.20;;;4.50;;
59872;SDS011;50750;51.636;4.948;2022-11-20T05:21:01;6.40;;;4.30;;
59872;SDS011;50750;51.636;4.948;2022-11-20T05:23:29;6.40;;;4.50;;
59872;SDS011;50750;51.636;4.948;2022-11-20T05:25:57;7.50;;;5.10;;
59872;SDS011;50750;51.636;4.948;2022-11-20T05:28:25;6.20;;;4.60;;
59872;SDS011;50750;51.636;4.948;2022-11-20T05:30:52;6.70;;;4.50;;
59872;SDS011;50750;51.636;4.948;2022-11-20T05:33:19;5.80;;;4.70;;
59872;SDS011;50750;51.636;4.948;2022-11-20T05:35:46;6.00;;;4.20;;
59872;SDS011;50750;51.636;4.948;2022-11-20T05:38:12;6.70;;;4.40;;
59872;SDS011;50750;51.636;4.948;2022-11-20T05:40:39;6.20;;;4.40;;
59872;SDS011;50750;51.636;4.948;2022-11-20T05:43:05;7.20;;;4.50;;
59872;SDS011;50750;51.636;4.948;2022-11-20T05:45:32;6.50;;;4.60;;
59872;SDS011;50750;51.636;4.948;2022-11-20T05:47:59;6.90;;;4.60;;
59872;SDS011;50750;51.636;4.948;2022-11-20T05:50:27;5.90;;;4.50;;
59872;SDS011;50750;51.636;4.948;2022-11-20T05:52:54;5.70;;;4.40;;
59872;SDS011;50750;51.636;4.948;2022-11-20T05:55:21;6.70;;;4.10;;
59872;SDS011;50750;51.636;4.948;2022-11-20T05:57:47;7.60;;;4.60;;
59872;SDS011;50750;51.636;4.948;2022-11-20T06:00:15;6.40;;;4.60;;
59872;SDS011;50750;51.636;4.948;2022-11-20T06:02:41;6.10;;;4.30;;
59872;SDS011;50750;51.636;4.948;2022-11-20T06:05:08;6.80;;;5.30;;
59872;SDS011;50750;51.636;4.948;2022-11-20T06:07:35;5.80;;;4.40;;
59872;SDS011;50750;51.636;4.948;2022-11-20T06:10:01;6.60;;;4.60;;
59872;SDS011;50750;51.636;4.948;2022-11-20T06:12:30;5.90;;;4.10;;
59872;SDS011;50750;51.636;4.948;2022-11-20T06:14:58;6.10;;;4.80;;
59872;SDS011;50750;51.636;4.948;2022-11-20T06:17:26;6.30;;;4.60;;
59872;SDS011;50750;51.636;4.948;2022-11-20T06:19:52;6.50;;;4.90;;
59872;SDS011;50750;51.636;4.948;2022-11-20T06:22:19;6.00;;;4.40;;
59872;SDS011;50750;51.636;4.948;2022-11-20T06:24:45;5.20;;;4.30;;
59872;SDS011;50750;51.636;4.948;2022-11-20T06:27:12;6.40;;;4.60;;
59872;SDS011;50750;51.636;4.948;2022-11-20T06:29:38;6.40;;;4.70;;
59872;SDS011;50750;51.636;4.948;2022-11-20T06:32:05;6.20;;;4.40;;
59872;SDS011;50750;51.636;4.948;2022-11-20T06:34:32;6.40;;;4.80;;
59872;SDS011;50750;51.636;4.948;2022-11-20T06:36:58;5.60;;;4.30;;
59872;SDS011;50750;51.636;4.948;2022-11-20T06:39:25;6.80;;;4.30;;
59872;SDS011;50750;51.636;4.948;2022-11-20T06:41:51;5.50;;;4.10;;
59872;SDS011;50750;51.636;4.948;2022-11-20T06:44:18;5.30;;;4.10;;
59872;SDS011;50750;51.636;4.948;2022-11-20T06:46:44;6.10;;;4.60;;
59872;SDS011;50750;51.636;4.948;2022-11-20T06:49:11;6.70;;;4.60;;
59872;SDS011;50750;51.636;4.948;2022-11-20T06:51:37;6.20;;;4.50;;
59872;SDS011;50750;51.636;4.948;2022-11-20T06:54:04;6.50;;;4.60;;
59872;SDS011;50750;51.636;4.948;2022-11-20T06:56:31;6.40;;;4.80;;
59872;SDS011;50750;51.636;4.948;2022-11-20T06:58:58;5.60;;;4.30;;
59872;SDS011;50750;51.636;4.948;2022-11-20T07:01:24;7.10;;;4.70;;
59872;SDS011;50750;51.636;4.948;2022-11-20T07:03:51;6.50;;;4.70;;
59872;SDS011;50750;51.636;4.948;2022-11-20T07:06:17;5.70;;;4.50;;
59872;SDS011;50750;51.636;4.948;2022-11-20T07:08:44;5.80;;;4.40;;
59872;SDS011;50750;51.636;4.948;2022-11-20T07:11:11;6.90;;;4.70;;
59872;SDS011;50750;51.636;4.948;2022-11-20T07:13:38;5.60;;;4.50;;
59872;SDS011;50750;51.636;4.948;2022-11-20T07:16:06;7.40;;;5.40;;
59872;SDS011;50750;51.636;4.948;2022-11-20T07:18:34;6.20;;;4.50;;
59872;SDS011;50750;51.636;4.948;2022-11-20T07:21:02;7.40;;;4.50;;
59872;SDS011;50750;51.636;4.948;2022-11-20T07:23:31;6.10;;;4.60;;
59872;SDS011;50750;51.636;4.948;2022-11-20T07:25:58;7.10;;;5.00;;
59872;SDS011;50750;51.636;4.948;2022-11-20T07:28:28;6.50;;;4.40;;
59872;SDS011;50750;51.636;4.948;2022-11-20T07:30:55;6.50;;;4.50;;
59872;SDS011;50750;51.636;4.948;2022-11-20T07:33:21;7.60;;;4.50;;
59872;SDS011;50750;51.636;4.948;2022-11-20T07:35:48;5.20;;;4.30;;
59872;SDS011;50750;51.636;4.948;2022-11-20T07:38:14;6.50;;;4.80;;
59872;SDS011;50750;51.636;4.948;2022-11-20T07:40:41;6.60;;;4.60;;
59872;SDS011;50750;51.636;4.948;2022-11-20T07:43:07;6.70;;;4.60;;
59872;SDS011;50750;51.636;4.948;2022-11-20T07:45:34;5.90;;;4.50;;
59872;SDS011;50750;51.636;4.948;2022-11-20T07:48:01;7.90;;;4.60;;
59872;SDS011;50750;51.636;4.948;2022-11-20T07:50:27;5.90;;;4.30;;
59872;SDS011;50750;51.636;4.948;2022-11-20T07:53:01;6.80;;;4.30;;
59872;SDS011;50750;51.636;4.948;2022-11-20T07:55:31;6.30;;;4.80;;
59872;SDS011;50750;51.636;4.948;2022-11-20T07:57:58;6.50;;;4.80;;
59872;SDS011;50750;51.636;4.948;2022-11-20T08:00:25;6.20;;;4.40;;
59872;SDS011;50750;51.636;4.948;2022-11-20T08:02:52;6.20;;;4.30;;
59872;SDS011;50750;51.636;4.948;2022-11-20T08:05:19;6.60;;;4.40;;
59872;SDS011;50750;51.636;4.948;2022-11-20T08:07:46;6.10;;;4.70;;
59872;SDS011;50750;51.636;4.948;2022-11-20T08:10:14;6.90;;;5.10;;
59872;SDS011;50750;51.636;4.948;2022-11-20T08:12:46;6.40;;;4.80;;
59872;SDS011;50750;51.636;4.948;2022-11-20T08:15:32;6.10;;;4.50;;
59872;SDS011;50750;51.636;4.948;2022-11-20T08:18:03;7.10;;;4.60;;
59872;SDS011;50750;51.636;4.948;2022-11-20T08:20:34;6.20;;;4.60;;
59872;SDS011;50750;51.636;4.948;2022-11-20T08:23:02;6.80;;;4.70;;
59872;SDS011;50750;51.636;4.948;2022-11-20T08:25:35;7.80;;;4.80;;
59872;SDS011;50750;51.636;4.948;2022-11-20T08:28:04;6.10;;;4.70;;
59872;SDS011;50750;51.636;4.948;2022-11-20T08:30:32;7.80;;;5.10;;
59872;SDS011;50750;51.636;4.948;2022-11-20T08:33:04;6.70;;;5.10;;
59872;SDS011;50750;51.636;4.948;2022-11-20T08:35:34;7.20;;;4.80;;
59872;SDS011;50750;51.636;4.948;2022-11-20T08:38:03;5.70;;;4.30;;
59872;SDS011;50750;51.636;4.948;2022-11-20T08:40:31;6.40;;;4.90;;
59872;SDS011;50750;51.636;4.948;2022-11-20T08:42:58;6.50;;;5.10;;
59872;SDS011;50750;51.636;4.948;2022-11-20T08:45:25;6.50;;;4.80;;
59872;SDS011;50750;51.636;4.948;2022-11-20T08:47:51;6.30;;;4.70;;
59872;SDS011;50750;51.636;4.948;2022-11-20T08:50:18;6.80;;;4.90;;
59872;SDS011;50750;51.636;4.948;2022-11-20T08:52:45;6.60;;;4.80;;
59872;SDS011;50750;51.636;4.948;2022-11-20T08:55:11;6.60;;;5.00;;
59872;SDS011;50750;51.636;4.948;2022-11-20T08:57:38;6.80;;;4.90;;
59872;SDS011;50750;51.636;4.948;2022-11-20T09:00:05;6.70;;;5.00;;
59872;SDS011;50750;51.636;4.948;2022-11-20T09:02:33;6.80;;;5.00;;
59872;SDS011;50750;51.636;4.948;2022-11-20T09:05:00;6.20;;;4.90;;
59872;SDS011;50750;51.636;4.948;2022-11-20T09:07:28;7.00;;;4.90;;
59872;SDS011;50750;51.636;4.948;2022-11-20T09:09:56;5.80;;;4.30;;
59872;SDS011;50750;51.636;4.948;2022-11-20T09:12:22;6.60;;;4.90;;
59872;SDS011;50750;51.636;4.948;2022-11-20T09:14:50;6.10;;;4.60;;
59872;SDS011;50750;51.636;4.948;2022-11-20T09:17:16;6.50;;;4.80;;
59872;SDS011;50750;51.636;4.948;2022-11-20T09:19:43;6.30;;;4.50;;
59872;SDS011;50750;51.636;4.948;2022-11-20T09:22:09;6.00;;;4.30;;
59872;SDS011;50750;51.636;4.948;2022-11-20T09:24:36;6.10;;;4.70;;
59872;SDS011;50750;51.636;4.948;2022-11-20T09:27:03;5.90;;;4.50;;
59872;SDS011;50750;51.636;4.948;2022-11-20T09:29:30;6.40;;;4.70;;
59872;SDS011;50750;51.636;4.948;2022-11-20T09:31:57;7.10;;;5.00;;
59872;SDS011;50750;51.636;4.948;2022-11-20T09:34:24;6.00;;;4.00;;
59872;SDS011;50750;51.636;4.948;2022-11-20T09:36:50;6.70;;;4.80;;
59872;SDS011;50750;51.636;4.948;2022-11-20T09:39:17;6.80;;;4.60;;
59872;SDS011;50750;51.636;4.948;2022-11-20T09:44:20;7.50;;;4.60;;
59872;SDS011;50750;51.636;4.948;2022-11-20T09:55:16;6.40;;;4.50;;
59872;SDS011;50750;51.636;4.948;2022-11-20T09:57:44;6.80;;;4.80;;
59872;SDS011;50750;51.636;4.948;2022-11-20T10:00:14;6.20;;;4.40;;
59872;SDS011;50750;51.636;4.948;2022-11-20T10:02:46;5.90;;;4.50;;
59872;SDS011;50750;51.636;4.948;2022-11-20T10:05:23;6.30;;;4.60;;
59872;SDS011;50750;51.636;4.948;2022-11-20T10:10:31;6.60;;;4.60;;
59872;SDS011;50750;51.636;4.948;2022-11-20T10:15:52;7.30;;;4.60;;
59872;SDS011;50750;51.636;4.948;2022-11-20T10:20:48;7.10;;;4.70;;
59872;SDS011;50750;51.636;4.948;2022-11-20T10:29:21;6.70;;;5.00;;
59872;SDS011;50750;51.636;4.948;2022-11-20T10:32:16;8.20;;;5.30;;
59872;SDS011;50750;51.636;4.948;2022-11-20T10:34:57;7.10;;;4.90;;
59872;SDS011;50750;51.636;4.948;2022-11-20T10:37:25;7.80;;;5.10;;
59872;SDS011;50750;51.636;4.948;2022-11-20T10:42:30;8.30;;;5.50;;
59872;SDS011;50750;51.636;4.948;2022-11-20T10:47:54;7.80;;;5.50;;
59872;SDS011;50750;51.636;4.948;2022-11-20T10:50:27;8.40;;;5.70;;
59872;SDS011;50750;51.636;4.948;2022-11-20T10:53:08;7.60;;;5.30;;
59872;SDS011;50750;51.636;4.948;2022-11-20T10:55:53;7.00;;;4.70;;
59872;SDS011;50750;51.636;4.948;2022-11-20T11:01:17;8.90;;;5.30;;
59872;SDS011;50750;51.636;4.948;2022-11-20T11:03:47;7.70;;;5.00;;
59872;SDS011;50750;51.636;4.948;2022-11-20T11:09:12;7.10;;;5.50;;
59872;SDS011;50750;51.636;4.948;2022-11-20T11:11:43;8.40;;;5.50;;
59872;SDS011;50750;51.636;4.948;2022-11-20T11:14:13;7.90;;;5.50;;
59872;SDS011;50750;51.636;4.948;2022-11-20T11:17:17;9.70;;;5.90;;
59872;SDS011;50750;51.636;4.948;2022-11-20T11:19:44;9.70;;;5.90;;
59872;SDS011;50750;51.636;4.948;2022-11-20T11:22:11;8.70;;;5.80;;
59872;SDS011;50750;51.636;4.948;2022-11-20T11:24:53;9.50;;;5.80;;
59872;SDS011;50750;51.636;4.948;2022-11-20T11:27:20;9.40;;;6.10;;
59872;SDS011;50750;51.636;4.948;2022-11-20T11:29:46;10.00;;;5.90;;
59872;SDS011;50750;51.636;4.948;2022-11-20T11:32:20;9.80;;;6.20;;
59872;SDS011;50750;51.636;4.948;2022-11-20T11:35:01;8.80;;;5.70;;
59872;SDS011;50750;51.636;4.948;2022-11-20T11:37:33;9.00;;;5.90;;
59872;SDS011;50750;51.636;4.948;2022-11-20T11:40:03;10.50;;;6.40;;
59872;SDS011;50750;51.636;4.948;2022-11-20T11:42:30;10.40;;;6.90;;
59872;SDS011;50750;51.636;4.948;2022-11-20T11:44:58;9.60;;;6.70;;
59872;SDS011;50750;51.636;4.948;2022-11-20T11:57:59;26.40;;;15.20;;
59872;SDS011;50750;51.636;4.948;2022-11-20T12:00:29;30.00;;;17.10;;
59872;SDS011;50750;51.636;4.948;2022-11-20T12:02:58;29.30;;;16.20;;
59872;SDS011;50750;51.636;4.948;2022-11-20T12:05:44;27.50;;;15.80;;
59872;SDS011;50750;51.636;4.948;2022-11-20T12:08:17;27.90;;;16.50;;
59872;SDS011;50750;51.636;4.948;2022-11-20T12:10:56;25.80;;;15.30;;
59872;SDS011;50750;51.636;4.948;2022-11-20T12:15:59;23.30;;;14.10;;
59872;SDS011;50750;51.636;4.948;2022-11-20T12:18:28;26.50;;;15.80;;
59872;SDS011;50750;51.636;4.948;2022-11-20T12:26:32;23.90;;;15.20;;
59872;SDS011;50750;51.636;4.948;2022-11-20T12:34:36;22.60;;;13.70;;
59872;SDS011;50750;51.636;4.948;2022-11-20T12:37:23;23.20;;;14.00;;
59872;SDS011;50750;51.636;4.948;2022-11-20T12:40:41;23.30;;;13.70;;
59872;SDS011;50750;51.636;4.948;2022-11-20T12:43:24;20.90;;;13.10;;
59872;SDS011;50750;51.636;4.948;2022-11-20T12:54:35;20.00;;;12.50;;
59872;SDS011;50750;51.636;4.948;2022-11-20T13:00:09;19.10;;;12.80;;
59872;SDS011;50750;51.636;4.948;2022-11-20T13:02:55;19.40;;;11.80;;
59872;SDS011;50750;51.636;4.948;2022-11-20T13:05:46;19.70;;;11.50;;
59872;SDS011;50750;51.636;4.948;2022-11-20T13:08:37;21.20;;;12.40;;
59872;SDS011;50750;51.636;4.948;2022-11-20T13:11:12;17.90;;;11.80;;
59872;SDS011;50750;51.636;4.948;2022-11-20T13:16:28;19.10;;;11.60;;
59872;SDS011;50750;51.636;4.948;2022-11-20T13:19:09;17.20;;;11.40;;
59872;SDS011;50750;51.636;4.948;2022-11-20T13:24:19;19.90;;;12.00;;
59872;SDS011;50750;51.636;4.948;2022-11-20T13:26:47;17.50;;;10.80;;
59872;SDS011;50750;51.636;4.948;2022-11-20T13:31:45;20.10;;;11.70;;
59872;SDS011;50750;51.636;4.948;2022-11-20T13:34:24;18.00;;;10.60;;
59872;SDS011;50750;51.636;4.948;2022-11-20T13:36:54;18.60;;;10.70;;
59872;SDS011;50750;51.636;4.948;2022-11-20T13:39:30;17.30;;;11.40;;
59872;SDS011;50750;51.636;4.948;2022-11-20T13:42:43;17.10;;;10.90;;
59872;SDS011;50750;51.636;4.948;2022-11-20T13:44:54;17.00;;;10.00;;
59872;SDS011;50750;51.636;4.948;2022-11-20T13:47:27;15.90;;;10.40;;
59872;SDS011;50750;51.636;4.948;2022-11-20T13:49:55;17.30;;;10.60;;
59872;SDS011;50750;51.636;4.948;2022-11-20T14:00:31;15.50;;;10.30;;
59872;SDS011;50750;51.636;4.948;2022-11-20T14:05:35;17.70;;;10.10;;
59872;SDS011;50750;51.636;4.948;2022-11-20T14:08:04;16.40;;;10.10;;
59872;SDS011;50750;51.636;4.948;2022-11-20T14:10:32;15.00;;;9.20;;
59872;SDS011;50750;51.636;4.948;2022-11-20T14:13:09;15.50;;;10.10;;
59872;SDS011;50750;51.636;4.948;2022-11-20T14:15:37;15.20;;;9.70;;
59872;SDS011;50750;51.636;4.948;2022-11-20T14:18:27;15.60;;;10.40;;
59872;SDS011;50750;51.636;4.948;2022-11-20T14:20:54;15.20;;;9.20;;
59872;SDS011;50750;51.636;4.948;2022-11-20T14:23:25;14.70;;;9.50;;
59872;SDS011;50750;51.636;4.948;2022-11-20T14:25:53;13.60;;;9.00;;
59872;SDS011;50750;51.636;4.948;2022-11-20T14:28:27;14.50;;;8.80;;
59872;SDS011;50750;51.636;4.948;2022-11-20T14:30:56;13.80;;;8.90;;
59872;SDS011;50750;51.636;4.948;2022-11-20T14:33:23;15.20;;;9.20;;
59872;SDS011;50750;51.636;4.948;2022-11-20T14:35:53;16.20;;;9.40;;
59872;SDS011;50750;51.636;4.948;2022-11-20T14:40:53;13.90;;;8.10;;
59872;SDS011;50750;51.636;4.948;2022-11-20T14:43:24;16.00;;;8.70;;
59872;SDS011;50750;51.636;4.948;2022-11-20T14:45:55;15.40;;;8.80;;
59872;SDS011;50750;51.636;4.948;2022-11-20T14:49:08;15.70;;;9.00;;
59872;SDS011;50750;51.636;4.948;2022-11-20T14:51:31;16.70;;;9.30;;
59872;SDS011;50750;51.636;4.948;2022-11-20T14:54:17;15.40;;;8.70;;
59872;SDS011;50750;51.636;4.948;2022-11-20T14:56:58;15.20;;;8.60;;
59872;SDS011;50750;51.636;4.948;2022-11-20T14:59:29;13.00;;;8.90;;
59872;SDS011;50750;51.636;4.948;2022-11-20T15:02:10;14.40;;;8.90;;
59872;SDS011;50750;51.636;4.948;2022-11-20T15:04:48;15.30;;;8.60;;
59872;SDS011;50750;51.636;4.948;2022-11-20T15:07:26;15.40;;;8.90;;
59872;SDS011;50750;51.636;4.948;2022-11-20T15:12:31;14.40;;;8.60;;
59872;SDS011;50750;51.636;4.948;2022-11-20T15:15:00;15.40;;;8.70;;
59872;SDS011;50750;51.636;4.948;2022-11-20T15:17:29;13.20;;;8.50;;
59872;SDS011;50750;51.636;4.948;2022-11-20T15:19:57;14.10;;;8.20;;
59872;SDS011;50750;51.636;4.948;2022-11-20T15:22:26;12.50;;;8.20;;
59872;SDS011;50750;51.636;4.948;2022-11-20T15:24:52;13.40;;;8.60;;
59872;SDS011;50750;51.636;4.948;2022-11-20T15:27:19;13.80;;;8.50;;
59872;SDS011;50750;51.636;4.948;2022-11-20T15:29:45;13.40;;;7.80;;
59872;SDS011;50750;51.636;4.948;2022-11-20T15:32:12;14.30;;;8.80;;
59872;SDS011;50750;51.636;4.948;2022-11-20T15:34:38;13.50;;;8.70;;
59872;SDS011;50750;51.636;4.948;2022-11-20T15:37:05;13.40;;;8.20;;
59872;SDS011;50750;51.636;4.948;2022-11-20T15:39:31;13.00;;;8.30;;
59872;SDS011;50750;51.636;4.948;2022-11-20T15:41:58;11.70;;;7.40;;
59872;SDS011;50750;51.636;4.948;2022-11-20T15:44:24;14.00;;;8.20;;
59872;SDS011;50750;51.636;4.948;2022-11-20T15:46:51;12.00;;;8.10;;
59872;SDS011;50750;51.636;4.948;2022-11-20T15:49:18;14.10;;;8.20;;
59872;SDS011;50750;51.636;4.948;2022-11-20T15:51:49;14.00;;;8.50;;
59872;SDS011;50750;51.636;4.948;2022-11-20T15:54:18;12.50;;;7.60;;
59872;SDS011;50750;51.636;4.948;2022-11-20T15:59:14;12.30;;;7.20;;
59872;SDS011;50750;51.636;4.948;2022-11-20T16:01:41;11.70;;;7.10;;
59872;SDS011;50750;51.636;4.948;2022-11-20T16:04:12;12.30;;;7.80;;
59872;SDS011;50750;51.636;4.948;2022-11-20T16:06:40;10.50;;;6.80;;
59872;SDS011;50750;51.636;4.948;2022-11-20T16:09:07;12.20;;;8.00;;
59872;SDS011;50750;51.636;4.948;2022-11-20T16:11:34;13.10;;;7.30;;
59872;SDS011;50750;51.636;4.948;2022-11-20T16:14:03;11.50;;;7.00;;
59872;SDS011;50750;51.636;4.948;2022-11-20T16:16:48;10.60;;;7.00;;
59872;SDS011;50750;51.636;4.948;2022-11-20T16:19:15;9.60;;;6.40;;
59872;SDS011;50750;51.636;4.948;2022-11-20T16:21:42;10.30;;;6.80;;
59872;SDS011;50750;51.636;4.948;2022-11-20T16:24:09;11.00;;;6.70;;
59872;SDS011;50750;51.636;4.948;2022-11-20T16:26:39;11.50;;;6.50;;
59872;SDS011;50750;51.636;4.948;2022-11-20T16:29:06;10.80;;;6.60;;
59872;SDS011;50750;51.636;4.948;2022-11-20T16:31:33;11.30;;;6.20;;
59872;SDS011;50750;51.636;4.948;2022-11-20T16:34:01;10.90;;;6.90;;
59872;SDS011;50750;51.636;4.948;2022-11-20T16:36:30;10.30;;;6.80;;
59872;SDS011;50750;51.636;4.948;2022-11-20T16:38:58;10.20;;;6.00;;
59872;SDS011;50750;51.636;4.948;2022-11-20T16:41:27;10.70;;;6.20;;
59872;SDS011;50750;51.636;4.948;2022-11-20T16:43:58;10.30;;;6.40;;
59872;SDS011;50750;51.636;4.948;2022-11-20T16:46:27;9.10;;;5.50;;
59872;SDS011;50750;51.636;4.948;2022-11-20T16:48:59;9.70;;;6.20;;
59872;SDS011;50750;51.636;4.948;2022-11-20T16:51:33;9.40;;;6.20;;
59872;SDS011;50750;51.636;4.948;2022-11-20T16:54:01;8.70;;;6.00;;
59872;SDS011;50750;51.636;4.948;2022-11-20T16:56:28;9.40;;;5.80;;